Time;durP1;ratioP1;P1;durP2;ratioP2;P2;SDS_P1;SDS_P2;PMS_P1;PMS_P2;Temp;Humidity;BMP_temperature;BMP_pressure;BME280_temperature;BME280_humidity;BME280_pressure;Samples;Min_cycle;Max_cycle;Signal;HPM_P1;HPM_P2
2023/06/28 00:01:37;;;;;;;4.22;1.20;;;20.20;71.40;;;;;;4978531;28;20398;-85
2023/06/28 00:04:04;;;;;;;4.90;1.27;;;20.20;71.40;;;;;;4978941;28;20102;-85
2023/06/28 00:06:31;;;;;;;3.72;1.45;;;20.20;71.40;;;;;;4978508;28;20430;-85
2023/06/28 00:08:57;;;;;;;4.18;1.33;;;20.20;71.40;;;;;;4986682;28;20022;-86
2023/06/28 00:11:22;;;;;;;4.00;1.38;;;20.20;71.40;;;;;;4978329;28;20037;-85
2023/06/28 00:13:48;;;;;;;4.35;1.40;;;20.20;71.40;;;;;;4978413;28;20023;-85
2023/06/28 00:16:14;;;;;;;4.15;1.48;;;20.20;71.50;;;;;;4978693;28;20109;-83
2023/06/28 00:18:40;;;;;;;3.15;1.52;;;20.20;71.40;;;;;;4977621;28;20517;-84
2023/06/28 00:21:06;;;;;;;5.50;1.50;;;20.20;71.50;;;;;;4978390;28;20026;-85
2023/06/28 00:23:31;;;;;;;4.60;1.55;;;20.20;71.50;;;;;;4978350;28;20026;-84
2023/06/28 00:25:57;;;;;;;4.82;1.45;;;20.20;71.50;;;;;;4995897;28;20025;-85
2023/06/28 00:28:23;;;;;;;4.35;1.30;;;20.20;71.60;;;;;;4976683;28;20438;-85
2023/06/28 00:30:48;;;;;;;4.68;1.75;;;20.20;71.60;;;;;;4978225;28;20050;-85
2023/06/28 00:33:19;;;;;;;3.05;1.40;;;20.10;71.50;;;;;;4978172;28;20391;-85
2023/06/28 00:35:46;;;;;;;3.95;1.50;;;20.20;71.60;;;;;;4983247;28;20558;-85
2023/06/28 00:38:11;;;;;;;4.20;1.42;;;20.20;71.60;;;;;;4981122;28;20030;-86
2023/06/28 00:40:36;;;;;;;3.42;1.35;;;20.10;71.60;;;;;;4994866;28;20538;-86
2023/06/28 00:43:02;;;;;;;5.50;1.42;;;20.10;71.60;;;;;;4978011;28;20030;-86
2023/06/28 00:45:27;;;;;;;4.03;1.45;;;20.20;71.70;;;;;;4977872;28;20027;-85
2023/06/28 00:47:53;;;;;;;4.85;1.55;;;20.20;71.50;;;;;;4976172;28;20073;-86
2023/06/28 00:50:20;;;;;;;5.72;1.70;;;20.20;71.50;;;;;;4974083;28;20065;-87
2023/06/28 00:52:45;;;;;;;5.20;1.80;;;20.20;72.10;;;;;;4974628;28;20373;-85
2023/06/28 00:55:11;;;;;;;4.80;1.60;;;20.20;71.50;;;;;;4975804;28;20050;-85
2023/06/28 00:57:37;;;;;;;3.20;1.55;;;20.20;71.50;;;;;;4975256;28;20544;-86
2023/06/28 01:00:08;;;;;;;6.80;1.90;;;20.20;71.50;;;;;;4974716;28;20133;-88
2023/06/28 01:02:33;;;;;;;5.90;1.70;;;20.20;71.40;;;;;;4958792;28;20668;-88
2023/06/28 01:04:59;;;;;;;5.18;1.70;;;20.20;71.50;;;;;;4958574;28;20125;-88
2023/06/28 01:07:30;;;;;;;4.68;1.55;;;20.20;71.40;;;;;;4958568;28;20614;-88
2023/06/28 01:09:57;;;;;;;4.70;1.60;;;20.10;71.40;;;;;;4983090;28;20031;-88
2023/06/28 01:12:27;;;;;;;4.50;1.67;;;20.10;71.40;;;;;;4974642;28;20038;-87
2023/06/28 01:14:52;;;;;;;4.47;1.73;;;20.10;71.50;;;;;;4974529;28;20496;-88
2023/06/28 01:17:19;;;;;;;4.05;1.45;;;20.10;71.50;;;;;;4974387;28;20102;-87
2023/06/28 01:19:45;;;;;;;4.85;1.60;;;20.10;71.60;;;;;;4981097;28;20026;-86
2023/06/28 01:22:13;;;;;;;6.20;1.60;;;20.10;71.70;;;;;;4975455;28;20362;-87
2023/06/28 01:24:38;;;;;;;4.32;1.65;;;20.10;71.70;;;;;;4974561;28;20119;-88
2023/06/28 01:27:07;;;;;;;4.20;1.90;;;20.00;71.60;;;;;;4975570;28;20102;-88
2023/06/28 01:29:33;;;;;;;5.80;1.92;;;20.10;71.70;;;;;;4975464;28;20077;-88
2023/06/28 01:31:59;;;;;;;5.13;2.00;;;20.00;71.70;;;;;;4977659;28;20435;-88
2023/06/28 01:34:26;;;;;;;4.38;1.58;;;20.00;71.80;;;;;;4977645;28;20058;-88
2023/06/28 01:36:54;;;;;;;4.60;1.60;;;20.00;71.70;;;;;;4977159;28;20029;-88
2023/06/28 01:39:21;;;;;;;4.22;1.90;;;20.10;71.80;;;;;;4976718;28;20049;-88
2023/06/28 01:41:47;;;;;;;4.43;1.80;;;20.00;71.80;;;;;;4973908;28;20023;-88
2023/06/28 01:44:14;;;;;;;4.80;2.00;;;20.00;71.90;;;;;;4957978;28;20101;-88
2023/06/28 01:46:40;;;;;;;5.22;1.70;;;20.10;71.90;;;;;;4957579;28;20126;-88
2023/06/28 01:49:06;;;;;;;3.92;1.70;;;20.00;71.90;;;;;;4961236;28;20062;-88
2023/06/28 01:51:34;;;;;;;4.82;1.83;;;20.00;71.90;;;;;;4959540;28;20093;-88
2023/06/28 01:54:00;;;;;;;4.45;1.70;;;20.00;72.00;;;;;;4957832;28;20027;-88
2023/06/28 01:56:25;;;;;;;4.50;1.50;;;20.00;72.00;;;;;;4973563;28;20027;-88
2023/06/28 01:58:51;;;;;;;5.60;1.98;;;20.00;71.90;;;;;;4966942;28;20038;-88
2023/06/28 02:01:17;;;;;;;4.78;1.83;;;20.00;72.00;;;;;;4973060;28;20019;-88
2023/06/28 02:03:42;;;;;;;3.65;1.60;;;20.00;71.90;;;;;;4976071;28;20026;-87
2023/06/28 02:06:08;;;;;;;5.80;1.70;;;20.00;71.90;;;;;;4976913;28;20029;-87
2023/06/28 02:08:34;;;;;;;5.20;2.08;;;20.00;72.00;;;;;;4975208;28;20061;-87
2023/06/28 02:10:59;;;;;;;5.18;1.80;;;20.00;72.00;;;;;;4977000;28;20030;-88
2023/06/28 02:13:25;;;;;;;4.68;1.73;;;20.00;71.90;;;;;;4976746;28;20026;-88
2023/06/28 02:15:50;;;;;;;3.38;1.50;;;20.00;71.90;;;;;;4976582;28;20018;-88
2023/06/28 02:18:17;;;;;;;6.15;2.10;;;20.00;71.90;;;;;;4976041;28;20030;-87
2023/06/28 02:20:45;;;;;;;5.32;1.85;;;20.00;71.90;;;;;;4967085;28;20049;-88
2023/06/28 02:23:11;;;;;;;6.78;2.10;;;20.00;71.90;;;;;;4976265;28;20030;-88
2023/06/28 02:25:36;;;;;;;6.18;1.88;;;20.00;71.90;;;;;;4976671;28;20442;-88
2023/06/28 02:28:02;;;;;;;5.72;1.90;;;20.00;71.90;;;;;;4989313;28;20030;-88
2023/06/28 02:30:27;;;;;;;4.45;1.75;;;20.00;71.90;;;;;;4997497;22;20048;-83
2023/06/28 02:32:53;;;;;;;5.13;1.88;;;20.00;71.90;;;;;;5012771;28;20061;-84
2023/06/28 02:35:18;;;;;;;4.80;1.92;;;20.00;71.90;;;;;;4995294;28;20029;-84
2023/06/28 02:37:44;;;;;;;5.82;2.00;;;20.00;71.90;;;;;;4995652;28;20014;-85
2023/06/28 02:40:12;;;;;;;6.65;1.90;;;20.00;72.00;;;;;;5017387;28;20070;-85
2023/06/28 02:42:37;;;;;;;6.07;2.00;;;20.00;72.00;;;;;;5010726;28;20037;-84
2023/06/28 02:45:03;;;;;;;6.70;2.28;;;20.00;72.00;;;;;;5002557;28;20118;-84
2023/06/28 02:47:28;;;;;;;6.32;2.15;;;20.00;72.10;;;;;;5002035;28;20045;-85
2023/06/28 02:49:54;;;;;;;4.63;1.80;;;20.00;72.10;;;;;;4998747;28;20035;-84
2023/06/28 02:52:20;;;;;;;7.43;2.28;;;20.00;72.20;;;;;;4997895;28;20045;-84
2023/06/28 02:54:46;;;;;;;4.65;1.70;;;19.90;72.30;;;;;;5001087;28;20855;-84
2023/06/28 02:57:11;;;;;;;4.38;1.55;;;19.90;72.20;;;;;;5018242;28;20076;-84
2023/06/28 02:59:37;;;;;;;7.30;1.98;;;19.90;72.30;;;;;;4999006;28;20048;-84
2023/06/28 03:02:04;;;;;;;5.13;2.00;;;20.00;72.40;;;;;;4990845;28;20023;-85
2023/06/28 03:04:29;;;;;;;6.65;2.05;;;19.90;72.40;;;;;;4980264;28;20022;-84
2023/06/28 03:06:55;;;;;;;6.30;2.20;;;19.90;72.40;;;;;;4997766;28;20049;-84
2023/06/28 03:09:20;;;;;;;5.93;1.90;;;19.90;72.50;;;;;;4980166;28;20077;-84
2023/06/28 03:11:46;;;;;;;8.00;2.13;;;19.90;72.50;;;;;;5005549;28;20034;-83
2023/06/28 03:14:12;;;;;;;7.25;2.10;;;19.90;72.50;;;;;;5000714;28;20026;-83
2023/06/28 03:16:37;;;;;;;5.43;1.70;;;19.90;72.60;;;;;;5020385;28;20109;-84
2023/06/28 03:19:05;;;;;;;4.85;1.88;;;19.90;72.60;;;;;;5002871;28;20054;-85
2023/06/28 03:21:30;;;;;;;5.53;1.98;;;19.90;72.60;;;;;;5001907;28;20026;-85
2023/06/28 03:23:56;;;;;;;6.25;1.90;;;19.90;72.60;;;;;;5001260;28;20088;-83
2023/06/28 03:26:21;;;;;;;6.03;2.13;;;19.90;72.70;;;;;;5001223;28;20026;-83
2023/06/28 03:28:47;;;;;;;6.00;2.00;;;19.90;72.70;;;;;;5000520;28;20025;-83
2023/06/28 03:31:12;;;;;;;4.72;1.85;;;19.90;72.70;;;;;;4987680;28;20026;-83
2023/06/28 03:33:38;;;;;;;5.63;1.80;;;19.90;72.70;;;;;;4996248;28;20052;-85
2023/06/28 03:36:03;;;;;;;4.78;2.03;;;19.90;72.70;;;;;;4999357;28;20025;-84
2023/06/28 03:38:29;;;;;;;6.20;2.05;;;19.90;72.70;;;;;;4999061;28;20534;-84
2023/06/28 03:40:54;;;;;;;4.60;1.73;;;19.90;72.70;;;;;;5007072;28;20026;-84
2023/06/28 03:43:20;;;;;;;5.55;2.20;;;19.90;72.80;;;;;;4998691;28;20510;-83
2023/06/28 03:45:45;;;;;;;5.55;2.20;;;20.50;73.10;;;;;;4997879;28;20038;-83
2023/06/28 03:48:11;;;;;;;5.70;2.00;;;19.90;72.80;;;;;;4998428;28;20030;-83
2023/06/28 03:50:36;;;;;;;5.20;1.90;;;19.90;72.80;;;;;;4996648;28;20550;-83
2023/06/28 03:53:02;;;;;;;6.18;2.30;;;19.90;72.80;;;;;;5013811;28;20396;-85
2023/06/28 03:55:29;;;;;;;6.70;2.10;;;19.90;72.70;;;;;;5015601;28;20486;-82
2023/06/28 03:57:55;;;;;;;5.93;1.88;;;20.00;72.70;;;;;;4997625;28;20545;-84
2023/06/28 04:00:21;;;;;;;6.07;2.00;;;20.00;72.80;;;;;;4993872;28;20030;-83
2023/06/28 04:02:46;;;;;;;5.18;1.90;;;20.00;72.80;;;;;;4987847;28;20444;-81
2023/06/28 04:05:12;;;;;;;6.78;2.00;;;20.00;72.50;;;;;;4996605;28;20022;-83
2023/06/28 04:07:37;;;;;;;6.28;2.00;;;19.90;72.40;;;;;;4996915;28;20122;-83
2023/06/28 04:10:04;;;;;;;5.75;1.85;;;19.90;72.60;;;;;;5012970;28;20409;-81
2023/06/28 04:12:29;;;;;;;13.45;2.50;;;19.90;72.60;;;;;;4991932;28;20030;-80
2023/06/28 04:14:55;;;;;;;11.05;2.53;;;19.90;72.50;;;;;;4995620;28;20489;-80
2023/06/28 04:17:20;;;;;;;8.15;2.20;;;19.90;72.50;;;;;;5014109;28;20113;-82
2023/06/28 04:19:46;;;;;;;7.38;2.20;;;19.90;72.70;;;;;;4994987;28;20040;-83
2023/06/28 04:22:11;;;;;;;6.50;1.90;;;19.90;72.80;;;;;;4987874;28;20117;-84
2023/06/28 04:24:37;;;;;;;7.03;2.20;;;19.80;72.90;;;;;;4997183;28;20104;-84
2023/06/28 04:27:03;;;;;;;10.10;2.30;;;19.80;72.90;;;;;;4996033;28;20029;-84
2023/06/28 04:29:28;;;;;;;8.73;2.10;;;19.90;73.00;;;;;;4997483;28;20022;-84
2023/06/28 04:31:58;;;;;;;9.57;2.38;;;19.80;73.10;;;;;;5006625;28;20042;-85
2023/06/28 04:34:24;;;;;;;9.23;2.33;;;19.90;73.20;;;;;;4977158;28;20033;-83
2023/06/28 04:36:49;;;;;;;5.90;2.00;;;19.90;73.30;;;;;;4977299;28;20113;-83
2023/06/28 04:39:15;;;;;;;7.75;2.33;;;21.40;74.20;;;;;;4976946;28;20371;-83
2023/06/28 04:41:40;;;;;;;6.32;1.92;;;19.80;73.30;;;;;;5002329;28;20057;-83
2023/06/28 04:44:09;;;;;;;6.78;2.10;;;19.80;73.40;;;;;;5014559;28;20472;-82
2023/06/28 04:46:35;;;;;;;7.30;2.20;;;19.80;73.40;;;;;;5013779;28;20049;-83
2023/06/28 04:49:00;;;;;;;8.38;2.42;;;19.80;73.50;;;;;;5013801;28;20058;-82
2023/06/28 04:51:26;;;;;;;5.70;2.30;;;19.80;73.50;;;;;;5007922;28;20022;-83
2023/06/28 04:53:52;;;;;;;5.65;2.05;;;19.90;73.60;;;;;;4996062;28;20033;-81
2023/06/28 04:56:17;;;;;;;6.38;2.10;;;19.90;73.60;;;;;;5014798;28;20834;-82
2023/06/28 04:58:43;;;;;;;6.13;2.03;;;19.90;73.70;;;;;;5013828;28;20029;-80
2023/06/28 05:01:09;;;;;;;5.15;2.20;;;19.90;73.70;;;;;;4990335;28;20030;-82
2023/06/28 05:03:35;;;;;;;5.65;1.90;;;19.90;73.70;;;;;;4992879;28;20399;-81
2023/06/28 05:06:08;;;;;;;6.50;1.98;;;19.90;73.80;;;;;;4997188;28;20099;-81
2023/06/28 05:08:34;;;;;;;6.40;1.80;;;19.90;73.80;;;;;;4996207;28;20030;-82
2023/06/28 05:11:03;;;;;;;5.03;1.77;;;19.90;73.50;;;;;;4996714;28;20050;-80
2023/06/28 05:13:28;;;;;;;4.78;1.80;;;20.00;73.50;;;;;;5016295;28;20502;-80
2023/06/28 05:15:54;;;;;;;4.15;1.73;;;20.10;73.40;;;;;;5017970;28;20030;-82
2023/06/28 05:18:20;;;;;;;4.32;1.90;;;20.20;73.20;;;;;;4997273;28;20022;-81
2023/06/28 05:20:46;;;;;;;5.20;1.80;;;20.20;72.90;;;;;;5009969;28;20030;-82
2023/06/28 05:23:17;;;;;;;4.88;1.73;;;20.30;72.90;;;;;;4990913;28;20129;-80
2023/06/28 05:25:44;;;;;;;5.10;1.83;;;20.30;72.70;;;;;;4997399;28;20100;-82
2023/06/28 05:28:12;;;;;;;5.40;1.70;;;20.30;72.60;;;;;;4997338;28;20422;-81
2023/06/28 05:30:38;;;;;;;6.38;1.90;;;20.30;72.50;;;;;;5008529;28;20037;-83
2023/06/28 05:33:03;;;;;;;6.78;1.80;;;20.30;72.50;;;;;;4985905;28;20030;-82
2023/06/28 05:35:33;;;;;;;4.80;1.65;;;20.40;72.60;;;;;;4977494;28;20030;-82
2023/06/28 05:37:59;;;;;;;6.20;1.90;;;20.40;72.50;;;;;;4977332;28;20023;-82
2023/06/28 05:40:27;;;;;;;4.65;1.55;;;20.40;72.60;;;;;;4982812;28;20026;-83
2023/06/28 05:42:53;;;;;;;5.13;2.08;;;20.40;72.60;;;;;;4988458;28;20033;-82
2023/06/28 05:45:20;;;;;;;5.68;1.80;;;20.40;72.80;;;;;;4997051;28;20022;-82
2023/06/28 05:47:45;;;;;;;4.53;1.63;;;20.40;72.80;;;;;;4996626;28;20092;-83
2023/06/28 05:50:11;;;;;;;6.30;1.80;;;20.30;72.90;;;;;;4996685;28;20479;-84
2023/06/28 05:52:37;;;;;;;5.32;1.95;;;20.30;73.00;;;;;;5021753;28;20197;-84
2023/06/28 05:55:02;;;;;;;4.30;1.67;;;20.30;73.10;;;;;;5007080;28;20022;-83
2023/06/28 05:57:28;;;;;;;4.55;1.90;;;20.30;73.20;;;;;;5024161;28;20053;-83
2023/06/28 05:59:53;;;;;;;3.65;1.65;;;20.30;73.20;;;;;;5021665;28;20646;-83
2023/06/28 06:02:18;;;;;;;4.85;1.90;;;20.30;73.20;;;;;;4995773;28;20118;-82
2023/06/28 06:04:44;;;;;;;5.28;1.50;;;20.30;73.30;;;;;;4992760;28;20036;-83
2023/06/28 06:07:09;;;;;;;6.32;1.73;;;20.30;73.30;;;;;;5004696;28;20064;-83
2023/06/28 06:09:35;;;;;;;4.72;1.77;;;20.30;73.30;;;;;;5003749;28;20028;-83
2023/06/28 06:12:00;;;;;;;4.65;1.67;;;20.30;73.40;;;;;;4998531;28;20026;-82
2023/06/28 06:14:26;;;;;;;4.03;1.63;;;20.30;73.40;;;;;;5003840;28;20181;-83
2023/06/28 06:16:54;;;;;;;3.13;1.40;;;20.30;73.50;;;;;;5003226;28;20482;-84
2023/06/28 06:19:19;;;;;;;4.57;1.70;;;20.40;73.60;;;;;;5021062;28;20018;-83
2023/06/28 06:21:45;;;;;;;4.25;1.65;;;20.30;73.60;;;;;;5013856;28;20040;-83
2023/06/28 06:24:10;;;;;;;4.00;1.70;;;20.40;73.60;;;;;;5020265;28;20026;-84
2023/06/28 06:26:36;;;;;;;4.00;1.40;;;20.30;73.60;;;;;;5001667;28;20475;-83
2023/06/28 06:29:02;;;;;;;5.05;1.35;;;20.30;73.60;;;;;;5001852;28;20467;-83
2023/06/28 06:31:28;;;;;;;3.38;1.38;;;20.40;73.70;;;;;;4998117;28;20042;-82
2023/06/28 06:34:00;;;;;;;3.58;1.50;;;20.30;73.60;;;;;;5000552;28;20046;-84
2023/06/28 06:36:26;;;;;;;4.15;1.40;;;20.40;73.80;;;;;;5018344;28;20430;-82
2023/06/28 06:38:51;;;;;;;4.63;1.45;;;20.40;73.70;;;;;;5022281;28;20040;-81
2023/06/28 06:41:17;;;;;;;4.82;1.70;;;20.40;73.70;;;;;;5005579;28;20032;-84
2023/06/28 06:43:42;;;;;;;3.22;1.42;;;20.40;73.80;;;;;;5023305;28;20032;-82
2023/06/28 06:46:07;;;;;;;5.30;1.90;;;20.40;73.70;;;;;;5005346;28;20017;-83
2023/06/28 06:48:33;;;;;;;3.40;1.50;;;20.50;73.70;;;;;;5004826;28;20379;-84
2023/06/28 06:50:58;;;;;;;3.97;1.50;;;20.50;73.70;;;;;;5000980;28;20068;-84
2023/06/28 06:53:24;;;;;;;3.88;1.67;;;20.50;73.60;;;;;;4986816;28;20327;-82
2023/06/28 06:55:49;;;;;;;2.97;1.30;;;20.50;73.60;;;;;;5001314;28;20025;-82
2023/06/28 06:58:15;;;;;;;3.83;1.60;;;20.50;73.50;;;;;;5021874;28;20093;-84
2023/06/28 07:00:40;;;;;;;3.67;1.50;;;20.60;73.50;;;;;;5017951;28;20379;-82
2023/06/28 07:03:06;;;;;;;3.22;1.27;;;20.60;73.50;;;;;;4983356;28;20022;-83
2023/06/28 07:05:31;;;;;;;4.35;1.67;;;20.60;73.40;;;;;;4982393;28;20161;-82
2023/06/28 07:07:57;;;;;;;3.85;1.55;;;20.60;73.40;;;;;;5000972;28;20029;-84
2023/06/28 07:10:22;;;;;;;3.47;1.20;;;20.60;73.40;;;;;;4988479;28;20029;-83
2023/06/28 07:12:47;;;;;;;3.13;1.67;;;20.60;73.40;;;;;;4993214;28;20037;-83
2023/06/28 07:15:13;;;;;;;3.90;1.58;;;20.60;73.50;;;;;;5019984;28;20095;-82
2023/06/28 07:17:39;;;;;;;4.00;1.38;;;20.60;73.50;;;;;;5019448;28;20550;-83
2023/06/28 07:20:05;;;;;;;3.38;1.42;;;20.60;73.60;;;;;;5016083;28;20072;-83
2023/06/28 07:22:31;;;;;;;3.40;1.40;;;20.50;73.70;;;;;;4989699;28;20022;-82
2023/06/28 07:24:56;;;;;;;2.72;1.20;;;20.50;73.80;;;;;;4998489;28;20499;-83
2023/06/28 07:27:22;;;;;;;3.58;1.35;;;20.50;73.80;;;;;;4980252;28;20018;-83
2023/06/28 07:29:47;;;;;;;3.50;1.58;;;20.60;73.90;;;;;;4981218;28;20026;-83
2023/06/28 07:32:13;;;;;;;3.08;1.48;;;20.60;73.90;;;;;;5001381;28;20518;-83
2023/06/28 07:34:38;;;;;;;2.72;1.40;;;20.60;73.80;;;;;;4979971;28;20028;-83
2023/06/28 07:37:06;;;;;;;3.92;1.60;;;20.60;73.80;;;;;;4979249;28;20053;-81
2023/06/28 07:39:32;;;;;;;2.63;1.27;;;20.60;73.70;;;;;;4995452;28;20557;-83
2023/06/28 07:41:58;;;;;;;2.63;1.30;;;20.60;73.60;;;;;;5010953;28;20076;-83
2023/06/28 07:44:23;;;;;;;3.38;1.50;;;20.60;73.60;;;;;;4998743;28;20040;-82
2023/06/28 07:46:49;;;;;;;3.15;1.45;;;20.70;73.60;;;;;;4998031;28;20022;-82
2023/06/28 07:49:14;;;;;;;3.97;1.60;;;20.60;74.20;;;;;;4997937;28;20437;-83
2023/06/28 07:51:40;;;;;;;3.42;1.45;;;20.60;73.70;;;;;;4989549;28;20041;-83
2023/06/28 07:54:05;;;;;;;2.88;1.20;;;20.60;73.80;;;;;;4995972;28;20037;-84
2023/06/28 07:56:31;;;;;;;3.53;1.60;;;20.70;73.80;;;;;;4976930;28;20076;-83
2023/06/28 07:58:56;;;;;;;2.70;1.33;;;20.70;73.70;;;;;;4994325;28;20026;-83
2023/06/28 08:01:22;;;;;;;2.60;1.40;;;20.70;73.70;;;;;;5007899;28;20381;-82
2023/06/28 08:03:47;;;;;;;2.95;1.30;;;20.70;73.70;;;;;;5001804;28;20085;-82
2023/06/28 08:06:13;;;;;;;3.60;1.50;;;20.70;73.70;;;;;;4998937;28;20548;-84
2023/06/28 08:08:38;;;;;;;2.40;1.30;;;20.70;73.70;;;;;;4980859;28;20028;-83
2023/06/28 08:11:04;;;;;;;3.00;1.38;;;20.70;73.60;;;;;;4987434;28;20468;-81
2023/06/28 08:13:29;;;;;;;2.78;1.30;;;20.80;73.70;;;;;;4995544;28;20032;-82
2023/06/28 08:15:54;;;;;;;3.60;1.52;;;20.80;73.60;;;;;;5017477;28;20061;-82
2023/06/28 08:18:20;;;;;;;2.90;1.23;;;20.80;73.50;;;;;;4999711;28;20018;-82
2023/06/28 08:20:47;;;;;;;2.80;1.35;;;20.90;73.50;;;;;;4996710;28;20165;-82
2023/06/28 08:23:13;;;;;;;1.92;1.10;;;20.90;73.40;;;;;;4992489;28;20033;-82
2023/06/28 08:25:39;;;;;;;3.25;1.30;;;21.00;73.40;;;;;;4999430;28;20018;-82
2023/06/28 08:28:04;;;;;;;2.85;1.20;;;21.00;73.30;;;;;;5016924;28;20041;-82
2023/06/28 08:30:30;;;;;;;2.53;1.20;;;21.00;73.20;;;;;;5010762;28;20434;-83
2023/06/28 08:32:55;;;;;;;2.08;1.20;;;21.00;73.10;;;;;;5017598;28;20068;-83
2023/06/28 08:35:21;;;;;;;2.65;1.42;;;21.00;73.00;;;;;;5016716;28;20399;-82
2023/06/28 08:37:46;;;;;;;2.05;1.27;;;21.00;73.00;;;;;;5016626;28;20018;-82
2023/06/28 08:40:12;;;;;;;2.90;1.38;;;21.10;73.00;;;;;;5012889;28;20034;-82
2023/06/28 08:42:41;;;;;;;2.92;1.50;;;21.10;73.00;;;;;;4987721;28;20444;-82
2023/06/28 08:45:07;;;;;;;2.42;1.20;;;21.10;72.90;;;;;;4978623;28;20065;-82
2023/06/28 08:47:34;;;;;;;3.38;1.40;;;21.10;73.00;;;;;;4978626;28;20022;-83
2023/06/28 08:49:59;;;;;;;3.28;1.45;;;21.10;73.60;;;;;;4997777;28;20036;-83
2023/06/28 08:52:26;;;;;;;2.67;1.30;;;21.10;73.10;;;;;;4995039;28;20022;-83
2023/06/28 08:54:52;;;;;;;3.42;1.40;;;21.10;73.20;;;;;;4997528;28;20032;-83
2023/06/28 08:57:19;;;;;;;3.33;1.50;;;21.00;73.20;;;;;;4997872;28;20030;-83
2023/06/28 08:59:45;;;;;;;4.45;1.50;;;21.00;73.40;;;;;;4995697;28;20643;-81
2023/06/28 09:02:15;;;;;;;2.25;1.30;;;21.10;73.50;;;;;;4993620;28;20046;-82
2023/06/28 09:04:42;;;;;;;2.33;1.30;;;21.10;73.60;;;;;;4997138;28;20022;-83
2023/06/28 09:07:08;;;;;;;2.70;1.33;;;21.00;73.60;;;;;;5008114;28;20030;-84
2023/06/28 09:09:35;;;;;;;2.83;1.40;;;21.10;73.70;;;;;;5006981;28;20125;-84
2023/06/28 09:12:01;;;;;;;2.60;1.27;;;21.00;73.80;;;;;;5001072;28;20041;-84
2023/06/28 09:14:28;;;;;;;2.53;1.40;;;21.00;73.80;;;;;;5006501;28;20406;-83
2023/06/28 09:16:54;;;;;;;2.30;1.40;;;21.00;73.90;;;;;;5023662;28;20032;-83
2023/06/28 09:19:19;;;;;;;2.80;1.42;;;21.00;73.90;;;;;;5005032;28;20081;-83
2023/06/28 09:21:45;;;;;;;3.30;1.30;;;21.00;74.00;;;;;;5004422;28;20018;-82
2023/06/28 09:24:12;;;;;;;2.85;1.30;;;21.00;74.00;;;;;;4986338;28;20030;-83
2023/06/28 09:26:40;;;;;;;2.40;1.30;;;21.00;74.00;;;;;;5002437;28;20041;-83
2023/06/28 09:29:08;;;;;;;3.05;1.30;;;21.00;74.00;;;;;;4984685;28;20117;-81
2023/06/28 09:31:39;;;;;;;2.05;1.17;;;21.10;73.90;;;;;;5008355;28;20483;-84
2023/06/28 09:34:05;;;;;;;2.10;1.27;;;21.10;73.90;;;;;;4993479;28;20076;-83
2023/06/28 09:36:32;;;;;;;2.35;1.30;;;21.10;73.90;;;;;;5002285;28;20491;-83
2023/06/28 09:38:57;;;;;;;2.25;1.25;;;21.10;73.90;;;;;;5003271;28;20049;-82
2023/06/28 09:41:24;;;;;;;2.83;1.30;;;21.10;73.90;;;;;;5002807;28;20014;-83
2023/06/28 09:43:50;;;;;;;3.40;1.25;;;21.10;73.90;;;;;;4989328;28;20625;-83
2023/06/28 09:46:17;;;;;;;1.92;1.20;;;21.10;74.00;;;;;;5000976;28;20064;-83
2023/06/28 09:48:44;;;;;;;2.08;1.20;;;21.10;74.00;;;;;;4982466;28;20037;-83
2023/06/28 09:51:11;;;;;;;3.22;1.40;;;21.10;73.90;;;;;;4989515;28;20018;-83
2023/06/28 09:53:53;;;;;;;2.15;1.20;;;21.10;73.90;;;;;;4989020;28;20023;-84
2023/06/28 09:56:19;;;;;;;2.45;1.00;;;21.20;73.90;;;;;;4987018;28;20113;-84
2023/06/28 09:58:46;;;;;;;2.17;1.00;;;21.10;73.80;;;;;;4987240;28;20022;-83
2023/06/28 10:01:16;;;;;;;1.88;1.10;;;21.10;73.80;;;;;;5010791;28;20026;-83
2023/06/28 10:03:45;;;;;;;1.25;1.10;;;21.20;73.80;;;;;;5002838;28;20021;-83
2023/06/28 10:06:10;;;;;;;2.70;1.33;;;21.20;73.80;;;;;;5005177;28;20102;-83
2023/06/28 10:08:38;;;;;;;3.67;1.60;;;21.20;73.80;;;;;;5004286;28;20037;-83
2023/06/28 10:11:08;;;;;;;3.17;1.23;;;21.20;73.70;;;;;;5003887;28;20026;-83
2023/06/28 10:13:35;;;;;;;1.77;1.20;;;21.20;73.80;;;;;;5021969;28;20112;-83
2023/06/28 10:16:13;;;;;;;2.63;1.17;;;21.20;73.80;;;;;;5021472;28;20064;-83
2023/06/28 10:18:40;;;;;;;2.13;1.20;;;21.20;73.90;;;;;;5003046;28;20048;-83
2023/06/28 10:21:07;;;;;;;2.33;0.98;;;21.10;74.00;;;;;;5001973;28;20045;-82
2023/06/28 10:23:35;;;;;;;1.60;1.10;;;21.10;74.10;;;;;;5001377;28;20029;-83
2023/06/28 10:26:03;;;;;;;2.40;1.10;;;21.10;74.20;;;;;;5002171;28;20022;-83
2023/06/28 10:28:31;;;;;;;2.60;1.30;;;21.10;74.30;;;;;;5000713;28;20034;-82
2023/06/28 10:30:58;;;;;;;2.28;1.20;;;21.00;74.30;;;;;;5014706;28;20049;-82
2023/06/28 10:33:25;;;;;;;2.90;1.30;;;21.10;74.40;;;;;;4986718;28;20027;-83
2023/06/28 10:35:52;;;;;;;2.10;1.10;;;21.10;74.50;;;;;;4998841;28;20432;-83
2023/06/28 10:38:18;;;;;;;1.50;1.05;;;21.00;74.50;;;;;;4998594;28;20029;-81
2023/06/28 10:40:46;;;;;;;2.78;1.27;;;21.00;74.60;;;;;;4987168;28;20037;-83
2023/06/28 10:43:23;;;;;;;1.88;1.17;;;21.00;74.60;;;;;;4993678;28;20444;-83
2023/06/28 10:45:48;;;;;;;3.00;1.45;;;21.00;74.70;;;;;;5018667;28;20537;-81
2023/06/28 10:48:19;;;;;;;1.98;1.20;;;21.00;74.80;;;;;;4998807;28;20026;-83
2023/06/28 10:50:44;;;;;;;2.83;1.27;;;21.00;74.70;;;;;;4997124;28;20029;-83
2023/06/28 10:53:21;;;;;;;1.73;1.13;;;21.00;74.80;;;;;;5009458;28;20171;-83
2023/06/28 10:56:09;;;;;;;2.13;1.15;;;21.00;74.80;;;;;;5016864;28;20131;-83
2023/06/28 10:58:43;;;;;;;1.42;1.05;;;21.00;74.70;;;;;;5016688;28;20026;-83
2023/06/28 11:01:10;;;;;;;2.28;1.10;;;21.00;74.70;;;;;;5010210;28;20491;-83
2023/06/28 11:03:41;;;;;;;1.73;1.20;;;21.00;74.70;;;;;;5015935;28;20029;-83
2023/06/28 11:06:08;;;;;;;3.03;1.20;;;21.00;74.70;;;;;;4997990;28;20023;-83
2023/06/28 11:08:40;;;;;;;1.95;1.02;;;21.00;74.80;;;;;;5015525;28;20026;-83
2023/06/28 11:11:07;;;;;;;2.58;1.25;;;21.00;74.80;;;;;;4998330;28;20498;-83
2023/06/28 11:13:48;;;;;;;3.08;1.38;;;21.00;74.80;;;;;;5011802;28;20096;-82
2023/06/28 11:16:20;;;;;;;2.47;1.30;;;21.00;74.90;;;;;;4997697;28;20026;-80
2023/06/28 11:18:47;;;;;;;2.65;1.33;;;21.00;74.80;;;;;;4998040;28;20053;-83
2023/06/28 11:21:15;;;;;;;1.95;1.20;;;21.10;74.80;;;;;;5011416;28;20482;-83
2023/06/28 11:23:42;;;;;;;2.80;1.20;;;21.00;74.70;;;;;;5013124;28;20033;-82
2023/06/28 11:26:12;;;;;;;2.28;1.10;;;21.10;74.60;;;;;;4997115;28;20029;-82
2023/06/28 11:28:50;;;;;;;1.55;1.10;;;21.10;74.60;;;;;;4996669;28;20440;-82
2023/06/28 11:31:25;;;;;;;1.75;1.13;;;21.10;74.50;;;;;;4996519;28;20037;-83
2023/06/28 11:33:54;;;;;;;2.50;1.10;;;21.10;74.50;;;;;;4978494;28;20023;-82
2023/06/28 11:36:24;;;;;;;3.13;1.20;;;21.10;74.50;;;;;;4980147;28;20018;-82
2023/06/28 11:38:50;;;;;;;1.92;1.10;;;21.10;74.50;;;;;;4980338;28;20498;-83
2023/06/28 11:41:16;;;;;;;1.80;1.10;;;21.10;74.50;;;;;;5006604;28;20030;-83
2023/06/28 11:43:45;;;;;;;2.47;1.10;;;21.10;74.50;;;;;;4983398;28;20037;-83
2023/06/28 11:46:18;;;;;;;1.98;1.13;;;21.10;74.50;;;;;;4980223;28;20022;-81
2023/06/28 11:48:49;;;;;;;2.13;1.15;;;21.10;74.70;;;;;;4998128;28;20014;-83
2023/06/28 11:51:15;;;;;;;2.97;1.37;;;21.10;74.80;;;;;;4986868;28;20415;-82
2023/06/28 11:53:40;;;;;;;1.60;1.00;;;21.00;74.80;;;;;;4979912;28;20022;-81
2023/06/28 11:56:06;;;;;;;1.65;1.10;;;21.00;74.90;;;;;;5015592;28;20022;-83
2023/06/28 11:58:36;;;;;;;2.28;1.25;;;21.00;75.00;;;;;;4998856;28;20483;-82
2023/06/28 12:01:04;;;;;;;1.65;1.05;;;21.00;75.00;;;;;;4998465;28;20029;-81
2023/06/28 12:03:30;;;;;;;1.83;1.02;;;21.00;75.10;;;;;;5016735;28;20022;-82
2023/06/28 12:05:57;;;;;;;1.60;1.10;;;21.00;75.10;;;;;;5016714;28;20105;-82
2023/06/28 12:08:22;;;;;;;1.80;1.10;;;21.00;75.10;;;;;;5016152;28;20029;-82
2023/06/28 12:10:48;;;;;;;2.58;1.10;;;21.00;75.10;;;;;;4996726;28;20037;-82
2023/06/28 12:13:21;;;;;;;2.05;1.20;;;21.00;75.10;;;;;;4991954;28;20076;-82
2023/06/28 12:15:46;;;;;;;2.50;1.23;;;21.00;75.10;;;;;;4998510;28;20030;-82
2023/06/28 12:18:12;;;;;;;1.48;1.10;;;21.00;75.10;;;;;;4998223;28;20525;-82
2023/06/28 12:20:37;;;;;;;2.33;1.13;;;21.00;75.10;;;;;;4999636;28;20075;-84
2023/06/28 12:23:10;;;;;;;2.65;1.33;;;21.00;75.20;;;;;;5000121;28;20029;-83
2023/06/28 12:25:40;;;;;;;2.03;1.20;;;21.00;75.10;;;;;;5025797;28;20053;-83
2023/06/28 12:28:08;;;;;;;1.25;1.10;;;21.00;75.20;;;;;;5006932;28;20026;-84
2023/06/28 12:30:34;;;;;;;1.80;1.13;;;21.00;75.20;;;;;;5021998;28;20485;-84
2023/06/28 12:33:06;;;;;;;1.55;1.10;;;21.10;75.20;;;;;;4987393;28;20054;-83
2023/06/28 12:35:32;;;;;;;2.72;1.30;;;21.10;75.20;;;;;;5006328;28;20030;-83
2023/06/28 12:37:58;;;;;;;3.00;1.38;;;21.10;75.20;;;;;;5005539;28;20164;-83
2023/06/28 12:40:29;;;;;;;1.50;0.90;;;21.00;75.20;;;;;;5004502;28;20045;-83
2023/06/28 12:43:17;;;;;;;1.77;1.10;;;21.00;75.20;;;;;;4986494;28;20065;-82